Aeroporto :
LOGIN :

Iscrizione | Disclaimer

   EN    FR    IT 

 










Sommario :    VFR   VFR Marginale   IFR   IFR Intensivo   IFR Molto Intensivo
Visibilità : 
Base nubi : 
>= 8 km
>= 3000ft
5 / 8 km
1000 / 3000 ft
1500m / 5 km
500 / 1000 ft
800 / 1500m
200 / 500 ft
< 800m
< 200 ft
Simboli :   Temporali  Nebbia  Neve Forte  Precipitazioni Forti  Vento > 20 kt
SIGMETs :   Varie  Temporali  Ghiacco  Turbolenza  Onda orograficha  Ceneri Vulcaniche






- Altitudine del aeroporto : 963 ft
- Codice IATA : TGM


LRTM - Transilvania Târgu Mureş Int.

ULTIMO METAR :
  • 211930Z AUTO 00000KT 5000 BR OVC024/// M01/M02 Q1040

METARs OBSOLETI :
  • 211900Z AUTO 24002KT 4900 BR OVC023/// M01/M02 Q1040
  • 211830Z AUTO 26002KT 5000 BR OVC023/// M01/M02 Q1040
  • 211800Z 24004KT 5000 BR SCT009 OVC024 M01/M02 Q1040 R07/19//95
  • 211730Z 23004KT 5000 BR SCT009 OVC024 M01/M02 Q1040 R07/19//95
  • 211700Z 24003KT 4500 BR SCT009 OVC024 M01/M02 Q1041 R07/19//95

TAF TAF LRTM
Valido dal 21 a 18 ore il 22 a 03 ore UTC


211700Z 2118/2203 VRB04KT 3000 BR SCT010 OVC025
BECMG 2120/2122 1500 BR BKN010 OVC020



MetMap, La meteo Aeronautica in un colpo d'occhio ! - Copyright ORBIFLY Dicembre 2007 - Disclaimer

ORBIFLY MET'MAP TEAM :

Programmazione e sviluppo : Alexandra Zaïnal
Concezione : Baudouin d'Aumeries
Aiuto per la programmazione : Marc-Olivier Méhu
Supporto tecnico e logistico : Manuel Goepfert
Aiuto per la traduzione : Arnaldo La Scala

Contatto : metmap@orbifly.com




FONTI E CREDITI :

   NOAA